createdAt,value
2023-04-14T00:04:11.573Z,16.67
2023-04-14T00:14:13.105Z,16.62
2023-04-14T00:24:14.699Z,16.57
2023-04-14T00:34:16.260Z,16.52
2023-04-14T00:44:17.724Z,16.46
2023-04-14T00:54:20.266Z,16.44
2023-04-14T01:04:21.943Z,16.38
2023-04-14T01:15:02.114Z,16.39
2023-04-14T01:25:09.660Z,16.33
2023-04-14T01:35:13.413Z,16.31
2023-04-14T01:45:23.592Z,16.28
2023-04-14T01:55:26.735Z,16.23
2023-04-14T02:05:28.230Z,16.18
2023-04-14T02:15:29.728Z,16.15
2023-04-14T02:25:32.400Z,16.13
2023-04-14T02:35:46.056Z,16.10
2023-04-14T02:45:49.150Z,16.01
2023-04-14T02:55:51.844Z,15.98
2023-04-14T03:05:53.231Z,15.93
2023-04-14T03:15:55.953Z,15.90
2023-04-14T03:25:57.384Z,15.88
2023-04-14T03:35:58.826Z,15.85
2023-04-14T03:46:00.468Z,15.76
2023-04-14T03:56:02.481Z,15.77
2023-04-14T04:06:04.023Z,15.73
2023-04-14T04:16:05.850Z,15.64
2023-04-14T04:26:07.828Z,15.93
2023-04-14T04:36:09.245Z,16.21
2023-04-14T04:46:38.179Z,16.56
2023-04-14T04:56:39.791Z,16.82
2023-04-14T05:06:41.300Z,16.98
2023-04-14T05:16:42.692Z,17.06
2023-04-14T05:27:01.534Z,17.09
2023-04-14T05:37:05.477Z,17.13
2023-04-14T05:47:06.949Z,17.24
2023-04-14T05:57:08.379Z,17.31
2023-04-14T06:07:09.779Z,17.41
2023-04-14T06:17:11.175Z,18.01
2023-04-14T06:27:12.759Z,18.51
2023-04-14T06:37:15.084Z,18.97
2023-04-14T06:47:20.781Z,19.29
2023-04-14T06:57:29.730Z,19.54
2023-04-14T07:07:37.455Z,19.81
2023-04-14T07:17:39.075Z,20.12
2023-04-14T07:27:49.783Z,20.47
2023-04-14T07:37:57.868Z,20.77
2023-04-14T07:47:59.443Z,21.10
2023-04-14T07:58:01.385Z,21.35
2023-04-14T08:08:03.245Z,21.66
2023-04-14T08:18:05.318Z,22.02
2023-04-14T08:28:07.018Z,22.37
2023-04-14T08:38:08.639Z,22.70
2023-04-14T08:48:10.199Z,23.27
2023-04-14T08:58:11.774Z,24.57
2023-04-14T09:08:13.644Z,25.81
2023-04-14T09:18:15.059Z,29.95
2023-04-14T09:28:16.609Z,29.91
2023-04-14T09:38:39.423Z,26.89
2023-04-14T09:48:51.956Z,25.77
2023-04-14T09:58:57.041Z,24.46
2023-04-14T10:08:58.993Z,22.98
2023-04-14T10:19:01.744Z,22.35
2023-04-14T10:29:03.833Z,22.00
2023-04-14T10:39:06.009Z,21.84
2023-04-14T10:49:08.056Z,21.72
2023-04-14T10:59:09.449Z,21.58
2023-04-14T11:09:38.902Z,21.51
2023-04-14T11:19:40.783Z,21.33
2023-04-14T11:29:42.530Z,21.20
2023-04-14T11:39:44.282Z,21.11
2023-04-14T11:49:45.959Z,21.10
2023-04-14T11:59:47.455Z,20.96
2023-04-14T12:09:50.598Z,20.92
2023-04-14T12:19:52.175Z,20.90
2023-04-14T12:29:53.561Z,20.78
2023-04-14T12:40:00.245Z,20.70
2023-04-14T12:50:21.310Z,20.60
2023-04-14T13:00:23.463Z,20.52
2023-04-14T13:10:24.858Z,20.48
2023-04-14T13:20:26.447Z,20.41
2023-04-14T13:30:28.008Z,20.35
2023-04-14T13:40:29.573Z,20.31
2023-04-14T13:50:31.287Z,20.29
2023-04-14T14:00:32.696Z,20.27
2023-04-14T14:10:34.133Z,20.29
2023-04-14T14:20:35.740Z,20.22
2023-04-14T14:30:37.247Z,20.20
2023-04-14T14:40:38.799Z,20.08
2023-04-14T14:50:40.437Z,19.98
2023-04-14T15:00:42.057Z,19.92
2023-04-14T15:10:44.020Z,19.83
2023-04-14T15:20:45.597Z,19.79
2023-04-14T15:30:47.009Z,19.73
2023-04-14T15:40:48.450Z,19.65
2023-04-14T15:50:49.831Z,19.57
2023-04-14T16:00:51.250Z,19.50
2023-04-14T16:10:53.372Z,19.43
2023-04-14T16:20:54.758Z,19.35
2023-04-14T16:31:01.831Z,19.27
2023-04-14T16:41:03.364Z,19.22
2023-04-14T16:51:08.498Z,19.14
2023-04-14T17:01:10.470Z,19.11
2023-04-14T17:11:12.143Z,19.07
2023-04-14T17:21:13.506Z,19.05
2023-04-14T17:31:15.531Z,19.02
2023-04-14T17:41:17.124Z,18.88
2023-04-14T17:51:18.846Z,18.88
2023-04-14T18:01:21.810Z,18.84
2023-04-14T18:11:24.301Z,18.76
2023-04-14T18:21:27.499Z,18.68
2023-04-14T18:31:29.180Z,18.65
2023-04-14T18:41:30.593Z,18.58
2023-04-14T18:51:32.685Z,18.51
2023-04-14T19:01:35.880Z,18.44
2023-04-14T19:11:37.479Z,18.36
2023-04-14T19:21:40.954Z,18.30
2023-04-14T19:31:42.717Z,18.20
2023-04-14T19:41:44.163Z,18.16
2023-04-14T19:51:45.568Z,18.09
2023-04-14T20:01:48.493Z,18.01
2023-04-14T20:11:49.920Z,17.96
2023-04-14T20:21:51.353Z,17.92
2023-04-14T20:31:53.389Z,17.87
2023-04-14T20:41:54.803Z,17.84
2023-04-14T20:51:58.318Z,17.82
2023-04-14T21:01:59.845Z,17.78
2023-04-14T21:12:14.827Z,17.77
2023-04-14T21:22:17.746Z,17.70
2023-04-14T21:32:19.278Z,17.69
2023-04-14T21:42:20.867Z,17.67
2023-04-14T21:52:22.256Z,17.67
2023-04-14T22:02:23.801Z,17.62
2023-04-14T22:12:25.241Z,17.57
2023-04-14T22:22:27.126Z,17.55
2023-04-14T22:32:28.752Z,17.53
2023-04-14T22:42:30.265Z,17.51
2023-04-14T22:52:31.785Z,17.49
2023-04-14T23:02:33.285Z,17.41
2023-04-14T23:12:35.026Z,17.37
2023-04-14T23:22:36.631Z,17.34
2023-04-14T23:32:38.079Z,17.28
2023-04-14T23:42:39.719Z,17.21
2023-04-14T23:52:41.419Z,17.19
